ESR722 RKPC-RKSS
Flight info
| Callsign | ESR722 |
|---|---|
| Flight time | 0h 53m |
| Altitude | 25000 |
| Route | KAMIT2E KAMIT Y722 OLMEN OLMEN2T |
| Aircraft | B738/M-SDE2E3FGHIRWXY/LB1 |
Departure
| Time | 2026-05-05 04:02 |
|---|---|
| Airport | Jeju International Airport (RKPC) |
Arrival
| Time | 2026-05-05 04:56 |
|---|---|
| Airport | Gimpo International Airport (RKSS) |
| Time | Latitude | Longitude | Altitude | Speed | Heading |
|---|---|---|---|---|---|
| 2026-05-05 03:54 | 33.50776 | 126.49299 | 90 ft | 0 kts | 182° |
| 2026-05-05 03:55 | 33.50788 | 126.49299 | 90 ft | 4 kts | 184° |
| 2026-05-05 03:55 | 33.50815 | 126.49302 | 91 ft | 4 kts | 187° |
| 2026-05-05 03:55 | 33.50842 | 126.49307 | 90 ft | 4 kts | 192° |
| 2026-05-05 03:56 | 33.50868 | 126.49315 | 89 ft | 4 kts | 200° |
| 2026-05-05 03:56 | 33.50891 | 126.49329 | 90 ft | 4 kts | 225° |
| 2026-05-05 03:56 | 33.50898 | 126.49338 | 90 ft | 0 kts | 238° |
| 2026-05-05 03:58 | 33.50890 | 126.49322 | 92 ft | 11 kts | 238° |
| 2026-05-05 03:59 | 33.50826 | 126.49195 | 92 ft | 16 kts | 239° |
| 2026-05-05 03:59 | 33.50761 | 126.49073 | 88 ft | 19 kts | 236° |
| 2026-05-05 03:59 | 33.50726 | 126.48909 | 89 ft | 18 kts | 315° |
| 2026-05-05 03:59 | 33.50784 | 126.48766 | 91 ft | 25 kts | 242° |
| 2026-05-05 04:00 | 33.50661 | 126.48538 | 90 ft | 39 kts | 237° |
| 2026-05-05 04:00 | 33.50500 | 126.48213 | 93 ft | 51 kts | 240° |
| 2026-05-05 04:00 | 33.50297 | 126.47818 | 94 ft | 59 kts | 235° |
| 2026-05-05 04:00 | 33.50087 | 126.47414 | 94 ft | 55 kts | 238° |
| 2026-05-05 04:01 | 33.49930 | 126.47109 | 96 ft | 39 kts | 238° |
| 2026-05-05 04:01 | 33.49952 | 126.46898 | 97 ft | 27 kts | 339° |
| 2026-05-05 04:01 | 33.50092 | 126.47036 | 94 ft | 49 kts | 55° |
| 2026-05-05 04:01 | 33.50378 | 126.47597 | 95 ft | 106 kts | 58° |
| 2026-05-05 04:02 | 33.50848 | 126.48474 | 108 ft | 143 kts | 53° |
| 2026-05-05 04:02 | 33.51505 | 126.49533 | 641 ft | 174 kts | 51° |
| 2026-05-05 04:02 | 33.52306 | 126.50736 | 1710 ft | 187 kts | 47° |
| 2026-05-05 04:02 | 33.53254 | 126.51916 | 2559 ft | 215 kts | 46° |
| 2026-05-05 04:03 | 33.54388 | 126.53239 | 2807 ft | 238 kts | 45° |
| 2026-05-05 04:03 | 33.55630 | 126.54662 | 3064 ft | 256 kts | 44° |
| 2026-05-05 04:03 | 33.56954 | 126.56168 | 3543 ft | 268 kts | 44° |
| 2026-05-05 04:03 | 33.58334 | 126.57734 | 4245 ft | 274 kts | 44° |
| 2026-05-05 04:04 | 33.59723 | 126.59308 | 5094 ft | 275 kts | 43° |
| 2026-05-05 04:04 | 33.61122 | 126.60893 | 5892 ft | 278 kts | 43° |
| 2026-05-05 04:04 | 33.62514 | 126.62471 | 6668 ft | 281 kts | 43° |
| 2026-05-05 04:04 | 33.63944 | 126.64093 | 7426 ft | 285 kts | 43° |
| 2026-05-05 04:05 | 33.65394 | 126.65739 | 8200 ft | 289 kts | 43° |
| 2026-05-05 04:05 | 33.66870 | 126.67404 | 8988 ft | 293 kts | 40° |
| 2026-05-05 04:05 | 33.68674 | 126.68551 | 9759 ft | 297 kts | 11° |
| 2026-05-05 04:05 | 33.70732 | 126.68903 | 10458 ft | 306 kts | 5° |
| 2026-05-05 04:06 | 33.72939 | 126.69179 | 10657 ft | 331 kts | 5° |
| 2026-05-05 04:06 | 33.75297 | 126.69470 | 11072 ft | 347 kts | 5° |
| 2026-05-05 04:06 | 33.77721 | 126.69789 | 11753 ft | 353 kts | 5° |
| 2026-05-05 04:06 | 33.80173 | 126.70134 | 12559 ft | 356 kts | 5° |
| 2026-05-05 04:07 | 33.82654 | 126.70499 | 13372 ft | 360 kts | 6° |
| 2026-05-05 04:07 | 33.85155 | 126.70878 | 14152 ft | 365 kts | 6° |
| 2026-05-05 04:07 | 33.87693 | 126.71269 | 14904 ft | 369 kts | 5° |
| 2026-05-05 04:07 | 33.90217 | 126.71662 | 15673 ft | 373 kts | 5° |
| 2026-05-05 04:08 | 33.92803 | 126.72066 | 16443 ft | 377 kts | 5° |
| 2026-05-05 04:08 | 33.95421 | 126.72477 | 17207 ft | 381 kts | 5° |
| 2026-05-05 04:08 | 33.98058 | 126.72890 | 17990 ft | 384 kts | 5° |
| 2026-05-05 04:08 | 34.00718 | 126.73308 | 18698 ft | 388 kts | 5° |
| 2026-05-05 04:09 | 34.03418 | 126.73733 | 19316 ft | 393 kts | 5° |
| 2026-05-05 04:09 | 34.06150 | 126.74162 | 19936 ft | 398 kts | 5° |
| 2026-05-05 04:09 | 34.08907 | 126.74597 | 20559 ft | 402 kts | 5° |
| 2026-05-05 04:09 | 34.11695 | 126.75035 | 21145 ft | 406 kts | 4° |
| 2026-05-05 04:10 | 34.14507 | 126.75477 | 21783 ft | 410 kts | 4° |
| 2026-05-05 04:10 | 34.17351 | 126.75926 | 22383 ft | 414 kts | 4° |
| 2026-05-05 04:10 | 34.20219 | 126.76379 | 22924 ft | 418 kts | 4° |
| 2026-05-05 04:10 | 34.23114 | 126.76836 | 23615 ft | 419 kts | 4° |
| 2026-05-05 04:11 | 34.25990 | 126.77291 | 24320 ft | 416 kts | 3° |
| 2026-05-05 04:11 | 34.28877 | 126.77667 | 24784 ft | 418 kts | 1° |
| 2026-05-05 04:11 | 34.31753 | 126.77970 | 24986 ft | 412 kts | 1° |
| 2026-05-05 04:11 | 34.34614 | 126.78246 | 24979 ft | 414 kts | 0° |
| 2026-05-05 04:12 | 34.37486 | 126.78520 | 24988 ft | 413 kts | 1° |
| 2026-05-05 04:12 | 34.40311 | 126.78798 | 24974 ft | 412 kts | 1° |
| 2026-05-05 04:12 | 34.43164 | 126.79086 | 24973 ft | 412 kts | 1° |
| 2026-05-05 04:12 | 34.46059 | 126.79386 | 24961 ft | 411 kts | 1° |
| 2026-05-05 04:13 | 34.48911 | 126.79685 | 24969 ft | 411 kts | 1° |
| 2026-05-05 04:13 | 34.51755 | 126.79985 | 24973 ft | 411 kts | 1° |
| 2026-05-05 04:13 | 34.54573 | 126.80283 | 24965 ft | 411 kts | 1° |
| 2026-05-05 04:13 | 34.57434 | 126.80587 | 24972 ft | 411 kts | 1° |
| 2026-05-05 04:14 | 34.60283 | 126.80891 | 24963 ft | 411 kts | 1° |
| 2026-05-05 04:14 | 34.63131 | 126.81195 | 24961 ft | 410 kts | 1° |
| 2026-05-05 04:14 | 34.65978 | 126.81498 | 24958 ft | 410 kts | 1° |
| 2026-05-05 04:14 | 34.68820 | 126.81802 | 24956 ft | 410 kts | 1° |
| 2026-05-05 04:15 | 34.71659 | 126.82104 | 24962 ft | 410 kts | 1° |
| 2026-05-05 04:15 | 34.74500 | 126.82406 | 24962 ft | 410 kts | 1° |
| 2026-05-05 04:15 | 34.77344 | 126.82708 | 24966 ft | 410 kts | 1° |
| 2026-05-05 04:15 | 34.80184 | 126.83011 | 24954 ft | 410 kts | 2° |
| 2026-05-05 04:16 | 34.83029 | 126.83316 | 24946 ft | 410 kts | 2° |
| 2026-05-05 04:16 | 34.85866 | 126.83620 | 24957 ft | 409 kts | 2° |
| 2026-05-05 04:16 | 34.88698 | 126.83923 | 24954 ft | 409 kts | 1° |
| 2026-05-05 04:16 | 34.91536 | 126.84227 | 24958 ft | 409 kts | 1° |
| 2026-05-05 04:17 | 34.94366 | 126.84530 | 25077 ft | 408 kts | 1° |
| 2026-05-05 04:17 | 34.97196 | 126.84833 | 25128 ft | 407 kts | 1° |
| 2026-05-05 04:17 | 35.00025 | 126.85137 | 25144 ft | 408 kts | 1° |
| 2026-05-05 04:17 | 35.02856 | 126.85441 | 25157 ft | 408 kts | 1° |
| 2026-05-05 04:18 | 35.05680 | 126.85744 | 25144 ft | 408 kts | 1° |
| 2026-05-05 04:18 | 35.08470 | 126.86044 | 25147 ft | 407 kts | 1° |
| 2026-05-05 04:18 | 35.11292 | 126.86348 | 25151 ft | 407 kts | 1° |
| 2026-05-05 04:18 | 35.14107 | 126.86651 | 25151 ft | 407 kts | 1° |
| 2026-05-05 04:19 | 35.16937 | 126.86958 | 25153 ft | 407 kts | 2° |
| 2026-05-05 04:19 | 35.19754 | 126.87264 | 25149 ft | 407 kts | 2° |
| 2026-05-05 04:19 | 35.22577 | 126.87571 | 25150 ft | 407 kts | 2° |
| 2026-05-05 04:19 | 35.25393 | 126.87878 | 25144 ft | 406 kts | 2° |
| 2026-05-05 04:20 | 35.28210 | 126.88186 | 25151 ft | 406 kts | 2° |
| 2026-05-05 04:20 | 35.31028 | 126.88493 | 25150 ft | 406 kts | 2° |
| 2026-05-05 04:20 | 35.33835 | 126.88799 | 25131 ft | 404 kts | 2° |
| 2026-05-05 04:20 | 35.36632 | 126.89103 | 25153 ft | 403 kts | 2° |
| 2026-05-05 04:21 | 35.39427 | 126.89408 | 25146 ft | 404 kts | 2° |
| 2026-05-05 04:21 | 35.42232 | 126.89716 | 25159 ft | 404 kts | 2° |
| 2026-05-05 04:21 | 35.45036 | 126.90023 | 25142 ft | 406 kts | 2° |
| 2026-05-05 04:21 | 35.47854 | 126.90332 | 25142 ft | 406 kts | 2° |
| 2026-05-05 04:22 | 35.50671 | 126.90640 | 25138 ft | 406 kts | 2° |
| 2026-05-05 04:22 | 35.53484 | 126.90947 | 25152 ft | 406 kts | 2° |
| 2026-05-05 04:22 | 35.56298 | 126.91254 | 25148 ft | 406 kts | 3° |
| 2026-05-05 04:22 | 35.59121 | 126.91563 | 25143 ft | 406 kts | 3° |
| 2026-05-05 04:23 | 35.61933 | 126.91870 | 25142 ft | 406 kts | 3° |
| 2026-05-05 04:23 | 35.64711 | 126.92175 | 25143 ft | 405 kts | 3° |
| 2026-05-05 04:23 | 35.67558 | 126.92487 | 25142 ft | 405 kts | 3° |
| 2026-05-05 04:23 | 35.70324 | 126.92790 | 25149 ft | 404 kts | 3° |
| 2026-05-05 04:24 | 35.73126 | 126.93098 | 25146 ft | 404 kts | 3° |
| 2026-05-05 04:24 | 35.75919 | 126.93405 | 25149 ft | 404 kts | 3° |
| 2026-05-05 04:24 | 35.78721 | 126.93713 | 25141 ft | 403 kts | 3° |
| 2026-05-05 04:25 | 35.84316 | 126.94328 | 25142 ft | 403 kts | 3° |
| 2026-05-05 04:25 | 35.87107 | 126.94636 | 25135 ft | 403 kts | 3° |
| 2026-05-05 04:25 | 35.89901 | 126.94944 | 25137 ft | 403 kts | 3° |
| 2026-05-05 04:25 | 35.92700 | 126.95254 | 25145 ft | 403 kts | 3° |
| 2026-05-05 04:26 | 35.95495 | 126.95565 | 25142 ft | 403 kts | 3° |
| 2026-05-05 04:26 | 35.98284 | 126.95877 | 25137 ft | 403 kts | 3° |
| 2026-05-05 04:26 | 36.01084 | 126.96190 | 25133 ft | 403 kts | 3° |
| 2026-05-05 04:26 | 36.03876 | 126.96502 | 25134 ft | 403 kts | 3° |
| 2026-05-05 04:27 | 36.06672 | 126.96814 | 25135 ft | 403 kts | 3° |
| 2026-05-05 04:27 | 36.09464 | 126.97127 | 25131 ft | 403 kts | 3° |
| 2026-05-05 04:27 | 36.12253 | 126.97439 | 25141 ft | 402 kts | 4° |
| 2026-05-05 04:27 | 36.15001 | 126.97749 | 25138 ft | 402 kts | 4° |
| 2026-05-05 04:28 | 36.17787 | 126.98014 | 25139 ft | 401 kts | 2° |
| 2026-05-05 04:28 | 36.20558 | 126.98369 | 25127 ft | 400 kts | 5° |
| 2026-05-05 04:28 | 36.23344 | 126.98649 | 25132 ft | 402 kts | 1° |
| 2026-05-05 04:28 | 36.26140 | 126.98929 | 25124 ft | 404 kts | 3° |
| 2026-05-05 04:29 | 36.28938 | 126.99280 | 25109 ft | 403 kts | 4° |
| 2026-05-05 04:29 | 36.31725 | 126.99644 | 25120 ft | 403 kts | 4° |
| 2026-05-05 04:29 | 36.34517 | 126.99955 | 25124 ft | 402 kts | 5° |
| 2026-05-05 04:29 | 36.37286 | 127.00310 | 25125 ft | 400 kts | 4° |
| 2026-05-05 04:30 | 36.40071 | 127.00456 | 25120 ft | 400 kts | 357° |
| 2026-05-05 04:30 | 36.42855 | 127.00322 | 25128 ft | 401 kts | 356° |
| 2026-05-05 04:30 | 36.45647 | 127.00177 | 25118 ft | 402 kts | 357° |
| 2026-05-05 04:30 | 36.48440 | 127.00062 | 25111 ft | 401 kts | 356° |
| 2026-05-05 04:31 | 36.51211 | 126.99934 | 25079 ft | 395 kts | 357° |
| 2026-05-05 04:31 | 36.53945 | 126.99816 | 24747 ft | 390 kts | 358° |
| 2026-05-05 04:31 | 36.56653 | 126.99712 | 24326 ft | 387 kts | 358° |
| 2026-05-05 04:31 | 36.59298 | 126.99617 | 24001 ft | 381 kts | 358° |
| 2026-05-05 04:32 | 36.61942 | 126.99523 | 23582 ft | 378 kts | 358° |
| 2026-05-05 04:32 | 36.64563 | 126.99430 | 23107 ft | 375 kts | 358° |
| 2026-05-05 04:32 | 36.67165 | 126.99337 | 22655 ft | 372 kts | 358° |
| 2026-05-05 04:32 | 36.69744 | 126.99243 | 22240 ft | 368 kts | 358° |
| 2026-05-05 04:33 | 36.72294 | 126.99238 | 21775 ft | 366 kts | 5° |
| 2026-05-05 04:33 | 36.74687 | 127.00133 | 21424 ft | 359 kts | 32° |
| 2026-05-05 04:33 | 36.76514 | 127.02183 | 21078 ft | 352 kts | 47° |
| 2026-05-05 04:33 | 36.78243 | 127.04342 | 20654 ft | 351 kts | 45° |
| 2026-05-05 04:34 | 36.80025 | 127.06417 | 20243 ft | 349 kts | 44° |
| 2026-05-05 04:34 | 36.81816 | 127.08458 | 19845 ft | 348 kts | 44° |
| 2026-05-05 04:34 | 36.83601 | 127.10491 | 19438 ft | 346 kts | 44° |
| 2026-05-05 04:34 | 36.85375 | 127.12515 | 19045 ft | 345 kts | 43° |
| 2026-05-05 04:35 | 36.87138 | 127.14532 | 18651 ft | 343 kts | 43° |
| 2026-05-05 04:35 | 36.88892 | 127.16547 | 18238 ft | 342 kts | 44° |
| 2026-05-05 04:35 | 36.90052 | 127.17882 | 17935 ft | 341 kts | 45° |
| 2026-05-05 04:35 | 36.92379 | 127.20563 | 17371 ft | 339 kts | 44° |
| 2026-05-05 04:36 | 36.94113 | 127.22563 | 16965 ft | 337 kts | 44° |
| 2026-05-05 04:36 | 36.95249 | 127.23875 | 16702 ft | 336 kts | 44° |
| 2026-05-05 04:36 | 36.97517 | 127.26496 | 16182 ft | 334 kts | 45° |
| 2026-05-05 04:36 | 36.99208 | 127.28450 | 16105 ft | 329 kts | 45° |
| 2026-05-05 04:37 | 37.00875 | 127.30378 | 16088 ft | 322 kts | 44° |
| 2026-05-05 04:37 | 37.01980 | 127.31655 | 16080 ft | 316 kts | 45° |
| 2026-05-05 04:37 | 37.04060 | 127.34067 | 16075 ft | 297 kts | 45° |
| 2026-05-05 04:37 | 37.05571 | 127.35824 | 15486 ft | 299 kts | 45° |
| 2026-05-05 04:38 | 37.06583 | 127.37004 | 15043 ft | 303 kts | 45° |
| 2026-05-05 04:38 | 37.08128 | 127.38804 | 14387 ft | 307 kts | 45° |
| 2026-05-05 04:38 | 37.09701 | 127.40635 | 13827 ft | 309 kts | 45° |
| 2026-05-05 04:38 | 37.11265 | 127.42457 | 13614 ft | 310 kts | 45° |
| 2026-05-05 04:39 | 37.13051 | 127.44023 | 13267 ft | 320 kts | 25° |
| 2026-05-05 04:39 | 37.15255 | 127.44597 | 12988 ft | 331 kts | 359° |
| 2026-05-05 04:39 | 37.17523 | 127.44036 | 12730 ft | 335 kts | 336° |
| 2026-05-05 04:39 | 37.19470 | 127.42458 | 12490 ft | 334 kts | 316° |
| 2026-05-05 04:40 | 37.21119 | 127.40412 | 12253 ft | 333 kts | 312° |
| 2026-05-05 04:40 | 37.22707 | 127.38301 | 12027 ft | 331 kts | 311° |
| 2026-05-05 04:40 | 37.24259 | 127.36219 | 11977 ft | 332 kts | 311° |
| 2026-05-05 04:40 | 37.25838 | 127.34120 | 11961 ft | 329 kts | 311° |
| 2026-05-05 04:41 | 37.27416 | 127.32044 | 11980 ft | 329 kts | 311° |
| 2026-05-05 04:41 | 37.29000 | 127.29973 | 11984 ft | 329 kts | 312° |
| 2026-05-05 04:41 | 37.30610 | 127.27878 | 11993 ft | 329 kts | 312° |
| 2026-05-05 04:41 | 37.32186 | 127.25828 | 11991 ft | 330 kts | 312° |
| 2026-05-05 04:42 | 37.33772 | 127.23766 | 11986 ft | 330 kts | 312° |
| 2026-05-05 04:42 | 37.35371 | 127.21671 | 11992 ft | 329 kts | 309° |
| 2026-05-05 04:42 | 37.36559 | 127.19257 | 11911 ft | 325 kts | 289° |
| 2026-05-05 04:42 | 37.37291 | 127.16595 | 11613 ft | 323 kts | 285° |
| 2026-05-05 04:43 | 37.37962 | 127.13906 | 11352 ft | 322 kts | 285° |
| 2026-05-05 04:43 | 37.38614 | 127.11221 | 11076 ft | 318 kts | 284° |
| 2026-05-05 04:43 | 37.39256 | 127.08572 | 10816 ft | 314 kts | 284° |
| 2026-05-05 04:43 | 37.39888 | 127.05970 | 10558 ft | 308 kts | 284° |
| 2026-05-05 04:44 | 37.40509 | 127.03423 | 10303 ft | 303 kts | 284° |
| 2026-05-05 04:44 | 37.41124 | 127.00906 | 10058 ft | 298 kts | 284° |
| 2026-05-05 04:44 | 37.41720 | 126.98477 | 9959 ft | 288 kts | 284° |
| 2026-05-05 04:44 | 37.42298 | 126.96119 | 9723 ft | 282 kts | 285° |
| 2026-05-05 04:45 | 37.42877 | 126.93754 | 9381 ft | 282 kts | 284° |
| 2026-05-05 04:45 | 37.43454 | 126.91395 | 9105 ft | 279 kts | 284° |
| 2026-05-05 04:45 | 37.44020 | 126.89078 | 8860 ft | 275 kts | 284° |
| 2026-05-05 04:45 | 37.44575 | 126.86808 | 8631 ft | 270 kts | 284° |
| 2026-05-05 04:46 | 37.45120 | 126.84580 | 8414 ft | 265 kts | 284° |
| 2026-05-05 04:46 | 37.45659 | 126.82366 | 8199 ft | 262 kts | 284° |
| 2026-05-05 04:46 | 37.46191 | 126.80181 | 7987 ft | 261 kts | 284° |
| 2026-05-05 04:46 | 37.46724 | 126.77998 | 7786 ft | 260 kts | 284° |
| 2026-05-05 04:47 | 37.47249 | 126.75837 | 7564 ft | 260 kts | 284° |
| 2026-05-05 04:47 | 37.47777 | 126.73670 | 7364 ft | 258 kts | 284° |
| 2026-05-05 04:47 | 37.48302 | 126.71511 | 7142 ft | 258 kts | 284° |
| 2026-05-05 04:47 | 37.48794 | 126.69340 | 6921 ft | 257 kts | 279° |
| 2026-05-05 04:48 | 37.49058 | 126.67158 | 6688 ft | 256 kts | 276° |
| 2026-05-05 04:48 | 37.49598 | 126.65035 | 6432 ft | 258 kts | 303° |
| 2026-05-05 04:48 | 37.50964 | 126.63565 | 6155 ft | 261 kts | 323° |
| 2026-05-05 04:48 | 37.52468 | 126.62311 | 5839 ft | 257 kts | 322° |
| 2026-05-05 04:49 | 37.53928 | 126.61050 | 5303 ft | 260 kts | 321° |
| 2026-05-05 04:49 | 37.55421 | 126.59731 | 4831 ft | 259 kts | 321° |
| 2026-05-05 04:49 | 37.56873 | 126.58435 | 4530 ft | 253 kts | 320° |
| 2026-05-05 04:49 | 37.58306 | 126.57159 | 4305 ft | 250 kts | 323° |
| 2026-05-05 04:50 | 37.59906 | 126.56422 | 4055 ft | 247 kts | 354° |
| 2026-05-05 04:50 | 37.61537 | 126.56862 | 3836 ft | 237 kts | 26° |
| 2026-05-05 04:50 | 37.62827 | 126.58065 | 3606 ft | 225 kts | 45° |
| 2026-05-05 04:50 | 37.63894 | 126.59422 | 3425 ft | 212 kts | 44° |
| 2026-05-05 04:51 | 37.64910 | 126.60703 | 3221 ft | 201 kts | 46° |
| 2026-05-05 04:51 | 37.65893 | 126.61949 | 2935 ft | 201 kts | 46° |
| 2026-05-05 04:51 | 37.66690 | 126.63304 | 2836 ft | 187 kts | 79° |
| 2026-05-05 04:51 | 37.66555 | 126.64822 | 2790 ft | 173 kts | 127° |
| 2026-05-05 04:52 | 37.65827 | 126.66021 | 2573 ft | 172 kts | 134° |
| 2026-05-05 04:52 | 37.65126 | 126.67094 | 2373 ft | 157 kts | 139° |
| 2026-05-05 04:52 | 37.64404 | 126.68047 | 2130 ft | 142 kts | 141° |
| 2026-05-05 04:52 | 37.63724 | 126.68902 | 1964 ft | 138 kts | 142° |
| 2026-05-05 04:53 | 37.63034 | 126.69763 | 1820 ft | 149 kts | 141° |
| 2026-05-05 04:53 | 37.62269 | 126.70723 | 1595 ft | 152 kts | 141° |
| 2026-05-05 04:53 | 37.61565 | 126.71612 | 1383 ft | 139 kts | 142° |
| 2026-05-05 04:53 | 37.60900 | 126.72447 | 1217 ft | 132 kts | 142° |
| 2026-05-05 04:54 | 37.60238 | 126.73276 | 1020 ft | 132 kts | 142° |
| 2026-05-05 04:54 | 37.59602 | 126.74073 | 863 ft | 133 kts | 142° |
| 2026-05-05 04:54 | 37.58937 | 126.74908 | 684 ft | 136 kts | 141° |
| 2026-05-05 04:54 | 37.58260 | 126.75752 | 520 ft | 139 kts | 139° |
| 2026-05-05 04:55 | 37.57564 | 126.76622 | 314 ft | 144 kts | 139° |
| 2026-05-05 04:55 | 37.56888 | 126.77496 | 110 ft | 132 kts | 142° |
| 2026-05-05 04:55 | 37.56270 | 126.78250 | 61 ft | 108 kts | 134° |
| 2026-05-05 04:55 | 37.55846 | 126.78786 | 52 ft | 65 kts | 136° |
| 2026-05-05 04:56 | 37.55615 | 126.79081 | 57 ft | 41 kts | 136° |
| 2026-05-05 04:56 | 37.55461 | 126.79379 | 58 ft | 39 kts | 103° |
| 2026-05-05 04:56 | 37.55445 | 126.79631 | 64 ft | 30 kts | 66° |
| 2026-05-05 04:56 | 37.55472 | 126.79888 | 57 ft | 35 kts | 112° |
| 2026-05-05 04:57 | 37.55436 | 126.80120 | 59 ft | 25 kts | 61° |
| 2026-05-05 04:57 | 37.55551 | 126.80286 | 63 ft | 8 kts | 45° |
| 2026-05-05 04:57 | 37.55615 | 126.80318 | 62 ft | 10 kts | 339° |
| 2026-05-05 04:57 | 37.55673 | 126.80337 | 61 ft | 8 kts | 44° |
| 2026-05-05 04:58 | 37.55687 | 126.80352 | 62 ft | 3 kts | 41° |
| 2026-05-05 04:58 | 37.55704 | 126.80373 | 63 ft | 2 kts | 50° |
| 2026-05-05 04:58 | 37.55713 | 126.80385 | 62 ft | 2 kts | 45° |
| 2026-05-05 04:58 | 37.55715 | 126.80388 | 62 ft | 0 kts | 45° |
| 2026-05-05 04:59 | 37.55717 | 126.80389 | 63 ft | 0 kts | 45° |